首页
METAR-TAF:

METAR-TAF

机场 :

贝尔加莫, 意大利

纬度: 45-40N, 经度: 009-42E, 海拔: 238米

当前天气观测

该预报发布于37分钟前的20:20 UTC
风速3节,风向
温度 18°C
湿度 52%
气压 1019 hPa
能见度10公里或以上
多云层高于7000英尺

METAR: LIME 292020Z 19003KT 9999 BKN070 18/08 Q1019 NOSIG

时间: 22:57 (20:57 UTC)

预报

该预报发布于3小时和57分钟前的17:00 UTC
预报有效从29日的 18点(UTC)到 30日的 18点(UTC)
风速5节,风向多变
能见度10公里或以上
散云层高于6000英尺
短暂存在
从 30日的 16点(UTC)到 30日的 18点(UTC)
阵雨

TAF: LIME 291700Z 2918/3018 VRB05KT 9999 SCT060 TEMPO 3016/3018 SHRA

超过4000个机场的气象观测和天气预报(METAR&TAF报告)。

可查询的气象台以黄色和红色小点在地图上表示。

将鼠标移到小点上方,可查看气象台名称。

然后点击查看天气观测和预报。

如需切换地图:点击带黑十字的绿色按钮放大地图;点击带横线的绿色按钮缩小地图;或者点击绿色箭头查看邻近地区的地图。


METAR-TAF: